Time;durP1;ratioP1;P1;durP2;ratioP2;P2;SDS_P1;SDS_P2;PMS_P1;PMS_P2;Temp;Humidity;BMP_temperature;BMP_pressure;BME280_temperature;BME280_humidity;BME280_pressure;Samples;Min_cycle;Max_cycle;Signal;HPM_P1;HPM_P2
2023/01/27 00:00:50;;;;;;;14.80;13.33;;;5.90;99.90;;;;;;5011373;28;20098;-80
2023/01/27 00:03:17;;;;;;;16.23;14.37;;;5.90;99.90;;;;;;5004713;28;20042;-80
2023/01/27 00:05:44;;;;;;;14.37;13.37;;;5.80;99.90;;;;;;4991752;28;20049;-80
2023/01/27 00:08:10;;;;;;;13.50;12.20;;;5.80;99.90;;;;;;5010491;28;20040;-80
2023/01/27 00:10:36;;;;;;;14.73;13.17;;;5.90;99.90;;;;;;5012420;28;20049;-79
2023/01/27 00:15:47;;;;;;;14.30;12.40;;;5.90;99.90;;;;;;5009258;28;20041;-80
2023/01/27 00:18:13;;;;;;;14.30;13.00;;;5.90;99.90;;;;;;5011765;28;20033;-80
2023/01/27 00:26:11;;;;;;;14.53;13.17;;;5.90;99.90;;;;;;5002631;28;20057;-80
2023/01/27 00:28:38;;;;;;;14.73;13.10;;;6.00;99.90;;;;;;4992630;28;20026;-80
2023/01/27 00:31:04;;;;;;;14.57;13.17;;;6.00;99.90;;;;;;5009764;28;20399;-80
2023/01/27 00:33:30;;;;;;;14.17;12.80;;;6.00;99.90;;;;;;4954268;28;20086;-80
2023/01/27 00:36:00;;;;;;;15.43;14.13;;;6.00;99.90;;;;;;4967474;28;20039;-80
2023/01/27 00:38:27;;;;;;;15.67;12.90;;;6.10;99.90;;;;;;4957498;28;20039;-80
2023/01/27 00:43:38;;;;;;;17.10;13.33;;;6.10;99.90;;;;;;4958718;28;20058;-80
2023/01/27 00:46:04;;;;;;;13.90;12.70;;;6.10;99.90;;;;;;4954419;28;20099;-80
2023/01/27 00:48:30;;;;;;;13.63;12.27;;;6.00;99.90;;;;;;4955728;28;20050;-80
2023/01/27 00:50:57;;;;;;;14.20;12.70;;;6.10;99.90;;;;;;4972050;28;20063;-80
2023/01/27 00:53:23;;;;;;;14.43;12.67;;;6.10;99.90;;;;;;4963412;28;20095;-80
2023/01/27 00:55:49;;;;;;;13.33;12.10;;;6.10;99.90;;;;;;4952228;29;20461;-80
2023/01/27 00:58:15;;;;;;;13.87;12.50;;;6.10;99.90;;;;;;4958855;28;20047;-80
2023/01/27 01:00:41;;;;;;;13.30;12.10;;;6.10;99.90;;;;;;4958616;28;20035;-79
2023/01/27 01:03:07;;;;;;;13.13;11.80;;;6.10;99.90;;;;;;4955897;28;20039;-80
2023/01/27 01:05:33;;;;;;;15.90;12.30;;;6.10;99.90;;;;;;5009041;28;20064;-80
2023/01/27 01:07:59;;;;;;;13.10;12.17;;;6.10;99.90;;;;;;4994609;28;20489;-80
2023/01/27 01:10:25;;;;;;;13.70;12.60;;;6.10;99.90;;;;;;5007804;28;20038;-80
2023/01/27 01:12:51;;;;;;;13.07;11.87;;;6.10;99.90;;;;;;4978373;28;20404;-80
2023/01/27 01:15:18;;;;;;;13.30;12.00;;;6.10;99.90;;;;;;4994015;28;20038;-80
2023/01/27 01:17:44;;;;;;;17.67;12.67;;;6.10;99.90;;;;;;5012916;28;20383;-80
2023/01/27 01:20:10;;;;;;;13.30;11.97;;;6.10;99.90;;;;;;5011379;28;20030;-80
2023/01/27 01:22:36;;;;;;;18.90;12.03;;;6.20;99.90;;;;;;5005919;28;20046;-80
2023/01/27 01:25:03;;;;;;;12.60;11.40;;;6.20;99.90;;;;;;4994915;28;20053;-80
2023/01/27 01:27:29;;;;;;;13.07;11.77;;;6.10;99.90;;;;;;5012129;28;20053;-80
2023/01/27 01:29:55;;;;;;;13.70;12.40;;;6.20;99.90;;;;;;5013729;28;20033;-80
2023/01/27 01:32:21;;;;;;;14.60;12.23;;;6.20;99.90;;;;;;5014620;28;20034;-80
2023/01/27 01:34:47;;;;;;;13.30;12.10;;;6.20;99.90;;;;;;4998404;28;20037;-80
2023/01/27 01:37:14;;;;;;;14.03;12.60;;;6.20;99.90;;;;;;4995427;28;20022;-80
2023/01/27 01:39:40;;;;;;;13.70;12.40;;;6.20;99.90;;;;;;4999213;28;20049;-80
2023/01/27 01:42:06;;;;;;;11.87;11.03;;;6.10;99.90;;;;;;4996876;28;20026;-80
2023/01/27 01:44:32;;;;;;;10.70;9.90;;;6.10;99.90;;;;;;5016164;28;20046;-80
2023/01/27 01:46:58;;;;;;;11.07;10.40;;;6.10;99.90;;;;;;5017123;28;20034;-79
2023/01/27 01:49:33;;;;;;;10.80;10.17;;;6.00;99.90;;;;;;5033099;28;20037;-79
2023/01/27 01:52:10;;;;;;;11.77;10.63;;;6.10;99.90;;;;;;4998333;28;20026;-79
2023/01/27 01:54:46;;;;;;;10.10;9.60;;;6.10;99.90;;;;;;5012564;28;20038;-79
2023/01/27 01:57:25;;;;;;;12.17;10.93;;;5.90;99.90;;;;;;5016431;28;20048;-79
2023/01/27 01:59:54;;;;;;;12.10;11.00;;;5.90;99.90;;;;;;5017917;28;20057;-79
2023/01/27 02:02:21;;;;;;;11.97;10.80;;;5.90;99.90;;;;;;4987924;28;20037;-79
2023/01/27 02:04:59;;;;;;;13.63;11.03;;;5.90;99.90;;;;;;5014925;28;20057;-79
2023/01/27 02:07:37;;;;;;;11.77;10.93;;;5.90;99.90;;;;;;5013883;28;20034;-79
2023/01/27 02:10:03;;;;;;;11.90;10.90;;;5.90;99.90;;;;;;5015302;28;20045;-79
2023/01/27 02:12:30;;;;;;;11.27;10.57;;;5.80;99.90;;;;;;5014880;28;20026;-79
2023/01/27 02:14:56;;;;;;;11.90;11.00;;;5.80;99.90;;;;;;4997693;28;20101;-79
2023/01/27 02:17:22;;;;;;;12.97;11.57;;;5.80;99.90;;;;;;5015428;28;20033;-79
2023/01/27 02:19:57;;;;;;;12.90;11.70;;;5.90;99.90;;;;;;5030701;28;20375;-79
2023/01/27 02:22:39;;;;;;;13.10;12.17;;;5.90;99.90;;;;;;5013834;28;20068;-79
2023/01/27 02:25:30;;;;;;;12.97;11.73;;;6.00;99.90;;;;;;5012329;28;20049;-80
2023/01/27 02:27:56;;;;;;;13.38;12.27;;;6.00;99.90;;;;;;4994770;28;20038;-79
2023/01/27 02:30:22;;;;;;;12.67;11.57;;;6.00;99.90;;;;;;5013065;28;20037;-79
2023/01/27 02:32:49;;;;;;;14.70;11.63;;;6.00;99.90;;;;;;5008863;28;20471;-79
2023/01/27 02:35:22;;;;;;;16.00;12.77;;;6.10;99.90;;;;;;5013272;28;20029;-79
2023/01/27 02:37:48;;;;;;;12.87;11.97;;;6.10;99.90;;;;;;4999060;28;20025;-80
2023/01/27 02:40:15;;;;;;;13.27;12.20;;;6.10;99.90;;;;;;5005229;28;20035;-79
2023/01/27 02:42:41;;;;;;;14.20;12.53;;;6.10;99.90;;;;;;5006403;28;20030;-80
2023/01/27 02:45:08;;;;;;;14.63;13.37;;;6.10;99.90;;;;;;4993587;28;20411;-80
2023/01/27 02:47:34;;;;;;;14.27;13.00;;;6.10;99.90;;;;;;5029498;28;20371;-79
2023/01/27 02:50:00;;;;;;;13.57;12.70;;;6.20;99.90;;;;;;5014611;28;20041;-79
2023/01/27 02:52:26;;;;;;;14.97;13.53;;;6.10;99.90;;;;;;5001476;28;20030;-79
2023/01/27 02:54:52;;;;;;;15.33;12.87;;;6.10;99.90;;;;;;4995492;28;20030;-80
2023/01/27 02:57:19;;;;;;;14.37;13.27;;;6.10;99.90;;;;;;4994492;28;20384;-80
2023/01/27 02:59:45;;;;;;;12.97;11.63;;;6.10;99.90;;;;;;4998481;28;20030;-80
2023/01/27 03:02:21;;;;;;;12.57;11.77;;;6.10;99.90;;;;;;5003084;28;20022;-79
2023/01/27 03:04:48;;;;;;;14.80;11.13;;;6.00;99.90;;;;;;5001347;28;20073;-80
2023/01/27 03:07:14;;;;;;;12.33;11.20;;;5.90;99.90;;;;;;5003111;28;20037;-80
2023/01/27 03:09:40;;;;;;;12.33;11.30;;;5.90;99.90;;;;;;5007545;28;20406;-80
2023/01/27 03:12:18;;;;;;;12.47;11.53;;;5.90;99.90;;;;;;4996989;28;20027;-80
2023/01/27 03:20:14;;;;;;;11.97;10.80;;;5.80;99.90;;;;;;5013083;28;20056;-80
2023/01/27 03:22:40;;;;;;;11.93;10.93;;;5.80;99.90;;;;;;5007313;28;20022;-80
2023/01/27 03:25:07;;;;;;;11.67;10.90;;;5.70;99.90;;;;;;5010535;28;20037;-80
2023/01/27 03:27:33;;;;;;;13.57;11.23;;;5.80;99.90;;;;;;5012950;28;20038;-80
2023/01/27 03:29:59;;;;;;;11.40;10.30;;;5.80;99.90;;;;;;5012176;28;20034;-80
2023/01/27 03:32:27;;;;;;;11.80;10.60;;;5.70;99.90;;;;;;5011032;28;20486;-79
2023/01/27 03:34:56;;;;;;;11.50;10.67;;;5.70;99.90;;;;;;5011332;28;20030;-80
2023/01/27 03:48:34;;;;;;;12.17;11.07;;;5.70;99.90;;;;;;5019934;28;20052;-80
2023/01/27 03:51:01;;;;;;;11.90;11.00;;;5.70;99.90;;;;;;4996342;28;20026;-80
2023/01/27 03:53:27;;;;;;;12.07;11.00;;;5.70;99.90;;;;;;4995541;28;20029;-79
2023/01/27 03:55:53;;;;;;;14.07;10.77;;;5.70;99.90;;;;;;5014158;28;20459;-79
2023/01/27 03:58:20;;;;;;;12.10;11.10;;;5.70;99.90;;;;;;5014110;28;20052;-79
2023/01/27 04:00:59;;;;;;;15.00;12.00;;;5.70;99.90;;;;;;4989471;28;20035;-80
2023/01/27 04:09:01;;;;;;;14.27;11.57;;;5.80;99.90;;;;;;4997043;28;20037;-79
2023/01/27 04:14:12;;;;;;;12.93;11.70;;;5.70;99.90;;;;;;4995661;28;20067;-79
2023/01/27 04:16:39;;;;;;;12.50;11.40;;;5.70;99.90;;;;;;4978600;28;20046;-79
2023/01/27 04:19:06;;;;;;;12.60;11.03;;;5.70;99.90;;;;;;4970177;28;20023;-79
2023/01/27 04:21:32;;;;;;;11.80;10.90;;;5.70;99.90;;;;;;4967424;28;20048;-79
2023/01/27 04:23:58;;;;;;;11.93;11.00;;;5.70;99.90;;;;;;4972561;28;20468;-79
2023/01/27 04:26:24;;;;;;;12.90;11.53;;;5.60;99.90;;;;;;4972681;28;20409;-79
2023/01/27 04:28:50;;;;;;;13.37;12.03;;;5.70;99.90;;;;;;4972376;28;20468;-79
2023/01/27 04:31:16;;;;;;;13.80;10.50;;;5.70;99.90;;;;;;4971245;28;20046;-79
2023/01/27 04:33:43;;;;;;;12.40;11.10;;;5.70;99.90;;;;;;4972906;28;20023;-79
2023/01/27 04:36:11;;;;;;;12.83;11.33;;;5.70;99.90;;;;;;4956578;28;20049;-79
2023/01/27 04:38:37;;;;;;;12.70;11.57;;;5.70;99.90;;;;;;4973155;28;20031;-79
2023/01/27 04:41:03;;;;;;;13.67;11.43;;;5.70;99.90;;;;;;4969354;28;20050;-79
2023/01/27 04:43:29;;;;;;;13.17;10.80;;;5.80;99.90;;;;;;4988317;28;20050;-78
2023/01/27 04:45:56;;;;;;;12.70;11.50;;;5.70;99.90;;;;;;4970948;28;20504;-78
2023/01/27 04:48:22;;;;;;;12.63;11.53;;;5.70;99.90;;;;;;4973156;28;20027;-78
2023/01/27 04:50:48;;;;;;;12.33;11.23;;;5.70;99.90;;;;;;4955572;28;20408;-78
2023/01/27 04:53:14;;;;;;;12.30;11.03;;;5.60;99.90;;;;;;4953674;28;20079;-78
2023/01/27 04:55:42;;;;;;;12.90;11.47;;;5.60;99.90;;;;;;4959755;28;20035;-78
2023/01/27 04:58:11;;;;;;;13.17;11.83;;;5.60;99.90;;;;;;4972865;28;20388;-79
2023/01/27 05:00:37;;;;;;;19.03;11.50;;;5.60;99.90;;;;;;4961586;28;20042;-80
2023/01/27 05:03:04;;;;;;;16.93;11.20;;;5.60;99.90;;;;;;4977829;28;20033;-80
2023/01/27 05:05:31;;;;;;;13.17;11.67;;;5.60;99.90;;;;;;4994233;28;20493;-80
2023/01/27 05:08:08;;;;;;;12.17;11.03;;;5.60;99.90;;;;;;4995181;28;20033;-81
2023/01/27 05:10:35;;;;;;;14.73;11.50;;;5.60;99.90;;;;;;4977041;28;20029;-80
2023/01/27 05:13:01;;;;;;;13.43;12.23;;;5.50;99.90;;;;;;4994683;28;20045;-81
2023/01/27 05:15:27;;;;;;;13.40;12.30;;;5.50;99.90;;;;;;4997934;28;20032;-81
2023/01/27 05:17:54;;;;;;;15.20;12.03;;;5.50;99.90;;;;;;5010769;28;20026;-81
2023/01/27 05:20:20;;;;;;;13.97;11.60;;;5.50;99.90;;;;;;5000925;28;20045;-81
2023/01/27 05:22:46;;;;;;;14.17;12.50;;;5.50;99.90;;;;;;5014633;28;20022;-81
2023/01/27 05:25:12;;;;;;;13.43;12.33;;;5.50;99.90;;;;;;5031713;28;20036;-81
2023/01/27 05:27:38;;;;;;;20.23;11.70;;;5.60;99.90;;;;;;5028921;28;20021;-81
2023/01/27 05:30:05;;;;;;;12.93;11.93;;;5.60;99.90;;;;;;5027768;28;20437;-82
2023/01/27 05:32:31;;;;;;;13.43;12.20;;;5.60;99.90;;;;;;5009740;28;20033;-80
2023/01/27 05:34:57;;;;;;;18.13;12.27;;;5.60;99.90;;;;;;5010868;28;20467;-81
2023/01/27 05:37:23;;;;;;;17.93;12.67;;;5.70;99.90;;;;;;5010817;28;20028;-81
2023/01/27 05:39:49;;;;;;;14.53;12.50;;;5.70;99.90;;;;;;5012555;28;20404;-81
2023/01/27 05:42:15;;;;;;;21.00;13.00;;;5.70;99.90;;;;;;5010807;28;20494;-81
2023/01/27 05:44:41;;;;;;;14.97;11.93;;;5.70;99.90;;;;;;5010964;28;20038;-81
2023/01/27 05:47:07;;;;;;;18.77;12.60;;;5.80;99.90;;;;;;5010794;28;20037;-81
2023/01/27 05:49:34;;;;;;;14.30;12.60;;;5.70;99.90;;;;;;5010197;28;20036;-81
2023/01/27 05:52:00;;;;;;;16.40;12.23;;;5.70;99.90;;;;;;4993839;28;20040;-81
2023/01/27 05:54:26;;;;;;;15.30;12.73;;;5.70;99.90;;;;;;5012409;28;20451;-81
2023/01/27 05:56:52;;;;;;;13.07;11.73;;;5.70;99.90;;;;;;5011194;28;20046;-81
2023/01/27 05:59:18;;;;;;;16.57;12.43;;;5.70;99.90;;;;;;5011952;28;20026;-81
2023/01/27 06:01:44;;;;;;;14.20;11.67;;;5.70;99.90;;;;;;5012219;28;20034;-81
2023/01/27 06:04:10;;;;;;;15.20;12.27;;;5.60;99.90;;;;;;4992566;28;20492;-81
2023/01/27 06:06:36;;;;;;;14.80;12.30;;;5.60;99.90;;;;;;5008062;28;20042;-81
2023/01/27 06:09:02;;;;;;;19.23;15.87;;;5.60;99.90;;;;;;5010605;28;20405;-81
2023/01/27 06:11:29;;;;;;;13.83;12.57;;;5.70;99.90;;;;;;5011104;28;20030;-81
2023/01/27 06:13:55;;;;;;;19.23;15.33;;;5.60;99.90;;;;;;5006821;28;20046;-81
2023/01/27 06:16:21;;;;;;;16.17;13.90;;;5.60;99.90;;;;;;4991077;28;20038;-81
2023/01/27 06:18:47;;;;;;;19.67;14.27;;;5.60;99.90;;;;;;4996314;28;20030;-81
2023/01/27 06:21:14;;;;;;;14.10;12.80;;;5.60;99.90;;;;;;5011437;28;20610;-81
2023/01/27 06:23:40;;;;;;;13.83;11.70;;;5.60;99.90;;;;;;5014651;28;20057;-81
2023/01/27 06:26:09;;;;;;;12.67;11.53;;;5.60;99.90;;;;;;5015816;28;20371;-81
2023/01/27 06:28:36;;;;;;;13.60;12.60;;;5.60;99.90;;;;;;5015114;28;20026;-81
2023/01/27 06:31:06;;;;;;;17.53;12.87;;;5.60;99.90;;;;;;5013942;28;20041;-81
2023/01/27 06:33:33;;;;;;;13.88;12.35;;;5.60;99.90;;;;;;5014482;28;20037;-80
2023/01/27 06:36:01;;;;;;;12.40;11.07;;;5.60;99.90;;;;;;5013038;28;20372;-81
2023/01/27 06:38:27;;;;;;;12.27;11.37;;;5.60;99.90;;;;;;5009450;28;20027;-80
2023/01/27 06:40:53;;;;;;;12.10;11.20;;;5.60;99.90;;;;;;4993862;28;20053;-80
2023/01/27 06:43:19;;;;;;;13.60;12.27;;;5.50;99.90;;;;;;5013816;28;20026;-81
2023/01/27 06:45:48;;;;;;;15.77;13.00;;;5.50;99.90;;;;;;5020781;28;20049;-81
2023/01/27 06:48:14;;;;;;;13.77;12.33;;;5.50;99.90;;;;;;5017536;28;20033;-81
2023/01/27 06:50:40;;;;;;;12.03;11.23;;;5.50;99.90;;;;;;5016874;28;20037;-81
2023/01/27 06:53:07;;;;;;;30.67;19.53;;;5.50;99.90;;;;;;5000598;28;20049;-81
2023/01/27 06:55:34;;;;;;;15.33;13.73;;;5.50;99.90;;;;;;5034706;28;20408;-81
2023/01/27 06:58:01;;;;;;;22.50;17.47;;;5.50;99.90;;;;;;5034009;28;20029;-81
2023/01/27 07:00:27;;;;;;;20.20;16.13;;;5.50;99.90;;;;;;5016178;28;20030;-81
2023/01/27 07:02:56;;;;;;;15.97;14.43;;;5.60;99.90;;;;;;5034745;28;20026;-81
2023/01/27 07:05:22;;;;;;;15.07;13.53;;;5.60;99.90;;;;;;5005063;28;20077;-79
2023/01/27 07:07:48;;;;;;;15.87;14.07;;;5.60;99.90;;;;;;4986768;28;20041;-81
2023/01/27 07:10:14;;;;;;;18.93;13.00;;;5.60;99.90;;;;;;5032523;28;20056;-79
2023/01/27 07:12:40;;;;;;;14.27;13.17;;;5.60;99.90;;;;;;5002262;28;20402;-80
2023/01/27 07:15:07;;;;;;;13.97;12.97;;;5.60;99.90;;;;;;5006610;28;20037;-80
2023/01/27 07:17:33;;;;;;;16.80;13.37;;;5.60;99.90;;;;;;5013518;28;20474;-80
2023/01/27 07:20:00;;;;;;;15.87;14.57;;;5.60;99.90;;;;;;5016875;28;20375;-80
2023/01/27 07:22:26;;;;;;;15.23;13.47;;;5.60;99.90;;;;;;5014760;28;20033;-81
2023/01/27 07:24:54;;;;;;;15.67;14.27;;;5.60;99.90;;;;;;5025252;28;20032;-82
2023/01/27 07:27:21;;;;;;;15.43;13.13;;;5.60;99.90;;;;;;5015085;28;20052;-81
2023/01/27 07:29:47;;;;;;;14.80;13.60;;;5.60;99.90;;;;;;5014712;28;20026;-81
2023/01/27 07:32:13;;;;;;;16.40;15.03;;;5.60;99.90;;;;;;5014013;28;20049;-81
2023/01/27 07:34:39;;;;;;;16.10;13.90;;;5.60;99.90;;;;;;4999600;28;20030;-82
2023/01/27 07:37:06;;;;;;;16.60;15.33;;;5.60;99.90;;;;;;4997982;28;20068;-83
2023/01/27 07:39:34;;;;;;;17.77;16.07;;;5.50;99.90;;;;;;4988974;28;20030;-83
2023/01/27 07:42:01;;;;;;;16.27;13.13;;;5.60;99.90;;;;;;5028588;28;20030;-81
2023/01/27 07:44:27;;;;;;;15.90;14.20;;;5.50;99.90;;;;;;5010348;28;20049;-81
2023/01/27 07:46:53;;;;;;;18.47;15.63;;;5.50;99.90;;;;;;5013956;28;20058;-80
2023/01/27 07:49:19;;;;;;;15.70;14.40;;;5.40;99.90;;;;;;5005788;28;20038;-81
2023/01/27 07:51:45;;;;;;;14.40;13.30;;;5.50;99.90;;;;;;5033223;28;20030;-83
2023/01/27 07:54:11;;;;;;;17.33;15.70;;;5.40;99.90;;;;;;5005748;28;20041;-83
2023/01/27 07:56:37;;;;;;;14.70;13.70;;;5.50;99.90;;;;;;5008457;28;20029;-83
2023/01/27 07:59:04;;;;;;;16.03;14.50;;;5.50;99.90;;;;;;5033568;28;20034;-83
2023/01/27 08:01:30;;;;;;;12.00;10.93;;;5.50;99.90;;;;;;5011714;28;20056;-81
2023/01/27 08:03:56;;;;;;;13.67;11.87;;;5.50;99.90;;;;;;4995729;28;20042;-84
2023/01/27 08:06:22;;;;;;;13.23;11.93;;;5.50;99.90;;;;;;5024426;28;20348;-83
2023/01/27 08:08:49;;;;;;;11.90;10.77;;;5.50;99.90;;;;;;4997540;28;20041;-86
2023/01/27 08:11:15;;;;;;;10.90;10.10;;;5.50;99.90;;;;;;5029611;28;20030;-82
2023/01/27 08:13:41;;;;;;;11.07;10.17;;;5.50;99.90;;;;;;5014888;28;20033;-82
2023/01/27 08:16:12;;;;;;;11.03;10.07;;;5.50;99.90;;;;;;4993565;28;20109;-84
2023/01/27 08:18:38;;;;;;;11.67;10.70;;;5.50;99.90;;;;;;4980157;28;20390;-83
2023/01/27 08:21:06;;;;;;;10.60;9.90;;;5.50;99.90;;;;;;5022147;28;20482;-82
2023/01/27 08:23:32;;;;;;;10.83;9.87;;;5.50;99.90;;;;;;5000723;28;20025;-83
2023/01/27 08:26:00;;;;;;;11.27;10.33;;;5.50;99.90;;;;;;5014107;28;20049;-82
2023/01/27 08:28:27;;;;;;;12.30;11.23;;;5.50;99.90;;;;;;5015648;28;20490;-82
2023/01/27 08:30:53;;;;;;;12.03;11.00;;;5.60;99.90;;;;;;5015226;28;20406;-82
2023/01/27 08:33:20;;;;;;;12.30;11.03;;;5.60;99.90;;;;;;5029129;28;20026;-82
2023/01/27 08:35:46;;;;;;;12.30;11.30;;;5.60;99.90;;;;;;5013136;28;20038;-82
2023/01/27 08:38:13;;;;;;;11.90;11.00;;;5.60;99.90;;;;;;5004699;28;20045;-85
2023/01/27 08:40:39;;;;;;;12.80;11.80;;;5.60;99.90;;;;;;5030379;28;20391;-81
2023/01/27 08:43:06;;;;;;;14.53;12.70;;;5.70;99.90;;;;;;5013101;28;20044;-84
2023/01/27 08:45:32;;;;;;;14.77;13.60;;;5.70;99.90;;;;;;5006169;28;20052;-84
2023/01/27 08:47:58;;;;;;;15.47;13.87;;;5.80;99.90;;;;;;5008304;28;20411;-83
2023/01/27 08:50:24;;;;;;;14.80;13.60;;;5.80;99.90;;;;;;5014103;28;20390;-81
2023/01/27 08:52:50;;;;;;;14.60;13.23;;;5.80;99.90;;;;;;5025087;28;20053;-80
2023/01/27 08:55:17;;;;;;;12.30;11.30;;;5.90;99.90;;;;;;5032746;28;20458;-81
2023/01/27 08:57:43;;;;;;;13.43;12.30;;;5.80;99.90;;;;;;5019745;28;20034;-81
2023/01/27 09:00:12;;;;;;;15.30;12.17;;;5.80;99.90;;;;;;5011588;28;20049;-87
2023/01/27 09:02:38;;;;;;;13.37;12.20;;;5.90;99.90;;;;;;4976418;28;20033;-86
2023/01/27 09:05:05;;;;;;;13.47;12.27;;;5.90;99.90;;;;;;4979579;28;20470;-86
2023/01/27 09:07:32;;;;;;;13.03;11.87;;;6.00;99.90;;;;;;4995161;28;20041;-85
2023/01/27 09:09:58;;;;;;;14.17;11.83;;;6.00;99.90;;;;;;5010851;28;20037;-82
2023/01/27 09:12:24;;;;;;;12.00;11.20;;;6.10;99.90;;;;;;4990999;28;20360;-82
2023/01/27 09:14:50;;;;;;;25.80;17.00;;;6.10;99.90;;;;;;4993374;28;20034;-80
2023/01/27 09:17:18;;;;;;;14.60;13.20;;;6.20;99.90;;;;;;4970940;28;20034;-82
2023/01/27 09:19:45;;;;;;;13.90;12.60;;;6.20;99.90;;;;;;5010940;28;20037;-83
2023/01/27 09:22:11;;;;;;;11.87;10.80;;;6.10;99.90;;;;;;4980605;28;20061;-82
2023/01/27 09:24:37;;;;;;;11.67;11.00;;;6.10;99.90;;;;;;5012702;28;20034;-82
2023/01/27 09:27:03;;;;;;;12.77;11.63;;;6.10;99.90;;;;;;4993262;28;20046;-82
2023/01/27 09:29:30;;;;;;;12.57;11.50;;;6.10;99.90;;;;;;4995171;28;20022;-82
2023/01/27 09:31:56;;;;;;;13.70;12.47;;;6.10;99.90;;;;;;5012282;28;20038;-82
2023/01/27 09:34:22;;;;;;;12.07;11.23;;;6.00;99.90;;;;;;4994462;28;20045;-84
2023/01/27 09:36:51;;;;;;;13.80;12.70;;;6.10;99.90;;;;;;4976782;28;20394;-83
2023/01/27 09:39:17;;;;;;;12.37;11.37;;;6.10;99.90;;;;;;4992582;28;20489;-83
2023/01/27 09:41:49;;;;;;;11.47;10.67;;;6.10;99.90;;;;;;4992349;28;20034;-83
2023/01/27 09:44:39;;;;;;;12.57;11.50;;;6.10;99.90;;;;;;5009177;28;20053;-83
2023/01/27 09:47:15;;;;;;;11.02;10.40;;;6.20;99.90;;;;;;5025167;28;20052;-82
2023/01/27 09:50:08;;;;;;;10.80;10.17;;;6.40;99.90;;;;;;4992668;28;20041;-80
2023/01/27 09:52:40;;;;;;;10.57;9.73;;;6.60;99.90;;;;;;5011864;28;20029;-79
2023/01/27 09:55:33;;;;;;;10.07;9.57;;;6.70;99.90;;;;;;5012366;28;20022;-82
2023/01/27 09:58:09;;;;;;;10.67;10.17;;;6.80;99.90;;;;;;4935223;29;20054;-79
2023/01/27 10:00:54;;;;;;;13.27;11.77;;;6.90;99.90;;;;;;4931086;29;20051;-81
2023/01/27 10:03:26;;;;;;;11.67;10.50;;;6.90;99.90;;;;;;4913179;29;20048;-81
2023/01/27 10:06:04;;;;;;;12.30;11.40;;;6.90;99.90;;;;;;4950109;29;20059;-83
2023/01/27 10:08:52;;;;;;;11.50;10.80;;;6.80;99.90;;;;;;4954817;28;20051;-89
2023/01/27 10:11:33;;;;;;;11.20;10.50;;;6.80;99.90;;;;;;4926061;29;20028;-80
2023/01/27 10:14:26;;;;;;;12.40;11.50;;;6.80;99.90;;;;;;4937795;29;20040;-81
2023/01/27 10:17:20;;;;;;;11.47;10.80;;;6.70;99.90;;;;;;4935039;29;20448;-81
2023/01/27 10:20:01;;;;;;;12.03;10.97;;;6.70;99.90;;;;;;4935905;29;20028;-81
2023/01/27 10:22:59;;;;;;;12.15;11.00;;;6.70;99.90;;;;;;4950973;28;20401;-81
2023/01/27 10:25:43;;;;;;;11.80;10.70;;;6.70;99.90;;;;;;4949995;29;20050;-81
2023/01/27 10:28:13;;;;;;;11.77;10.80;;;6.70;99.90;;;;;;4955145;28;20039;-81
2023/01/27 10:30:50;;;;;;;12.35;11.52;;;6.80;99.90;;;;;;4927365;29;20043;-82
2023/01/27 10:33:18;;;;;;;14.07;12.73;;;6.80;99.90;;;;;;4941226;29;20035;-90
2023/01/27 10:35:58;;;;;;;12.80;11.83;;;6.90;99.90;;;;;;4972231;28;20036;-89
2023/01/27 10:38:31;;;;;;;14.27;11.53;;;7.00;99.90;;;;;;5004526;28;20029;-89
2023/01/27 10:41:27;;;;;;;13.40;11.90;;;7.10;99.90;;;;;;5003765;28;20360;-89
2023/01/27 10:44:06;;;;;;;12.73;11.73;;;7.20;99.90;;;;;;5018690;28;20044;-89
2023/01/27 10:46:42;;;;;;;13.10;12.10;;;7.20;99.90;;;;;;4999655;28;20522;-91
2023/01/27 10:49:22;;;;;;;13.10;11.63;;;7.30;99.90;;;;;;5001482;28;20041;-89
2023/01/27 10:51:54;;;;;;;12.30;11.50;;;7.40;99.90;;;;;;5016193;28;20026;-89
2023/01/27 10:55:03;;;;;;;10.73;10.10;;;7.40;99.90;;;;;;5003498;28;20045;-83
2023/01/27 10:57:38;;;;;;;12.17;11.50;;;7.30;99.90;;;;;;4972919;28;20045;-82
2023/01/27 11:00:09;;;;;;;13.17;12.07;;;7.30;99.90;;;;;;4977045;28;20035;-81
2023/01/27 11:02:44;;;;;;;11.93;10.97;;;7.30;99.90;;;;;;5012382;28;20033;-83
2023/01/27 11:05:19;;;;;;;12.20;11.20;;;7.30;99.90;;;;;;5013216;28;20042;-84
2023/01/27 11:08:07;;;;;;;11.40;10.70;;;7.30;99.90;;;;;;4977827;28;20058;-82
2023/01/27 11:11:43;;;;;;;12.73;11.50;;;7.20;99.90;;;;;;4997887;28;20471;-88
2023/01/27 11:13:27;;;;;;;12.23;11.07;;;7.20;99.90;;;;;;5000284;28;20490;-85
2023/01/27 11:15:53;;;;;;;11.37;10.57;;;7.20;99.90;;;;;;5013242;28;20026;-85
2023/01/27 11:18:24;;;;;;;11.77;10.90;;;7.20;99.90;;;;;;5007531;28;20518;-83
2023/01/27 11:20:56;;;;;;;11.48;10.88;;;7.10;99.90;;;;;;5002742;28;20034;-84
2023/01/27 11:23:30;;;;;;;12.13;11.13;;;7.10;99.90;;;;;;4996320;28;20029;-82
2023/01/27 11:26:24;;;;;;;11.50;10.67;;;7.10;99.90;;;;;;5008584;28;20061;-84
2023/01/27 11:29:14;;;;;;;12.20;11.30;;;7.10;99.90;;;;;;5012322;28;20037;-83
2023/01/27 11:31:58;;;;;;;12.27;11.57;;;7.10;99.90;;;;;;5027223;28;20048;-84
2023/01/27 11:34:53;;;;;;;14.73;13.53;;;7.10;99.90;;;;;;5015361;28;20502;-83
2023/01/27 11:37:34;;;;;;;11.50;10.83;;;7.20;99.90;;;;;;5001523;28;20033;-83
2023/01/27 11:40:00;;;;;;;;;;;7.20;99.90;;;;;;5015243;28;20367;-82
2023/01/27 11:42:32;;;;;;;12.60;11.53;;;7.30;99.90;;;;;;5014652;28;19905;-82
2023/01/27 11:44:58;;;;;;;12.90;12.10;;;7.30;99.90;;;;;;5016754;28;20025;-83
2023/01/27 11:47:31;;;;;;;13.47;12.53;;;7.30;99.90;;;;;;5015505;28;20048;-83
2023/01/27 11:49:57;;;;;;;13.47;12.67;;;7.30;99.90;;;;;;5015740;28;20021;-83
2023/01/27 11:52:26;;;;;;;13.17;12.33;;;7.30;99.90;;;;;;4997995;28;20037;-82
2023/01/27 11:54:53;;;;;;;15.37;14.13;;;7.30;99.90;;;;;;4994631;28;20367;-83
2023/01/27 11:57:24;;;;;;;13.27;12.17;;;7.30;99.90;;;;;;5010550;28;20021;-84
2023/01/27 11:59:59;;;;;;;14.15;12.98;;;7.30;99.90;;;;;;5014879;28;20033;-84
2023/01/27 12:02:40;;;;;;;13.97;12.93;;;7.20;99.90;;;;;;5014438;28;20033;-83
2023/01/27 12:05:13;;;;;;;14.50;13.07;;;7.30;99.90;;;;;;5016815;28;20049;-83
2023/01/27 12:07:48;;;;;;;14.80;13.23;;;7.30;99.90;;;;;;4981731;28;20050;-83
2023/01/27 12:10:26;;;;;;;11.87;10.77;;;7.30;99.90;;;;;;5029358;28;20030;-83
2023/01/27 12:12:52;;;;;;;13.17;12.03;;;7.30;99.90;;;;;;5013770;28;20038;-83
2023/01/27 12:15:18;;;;;;;12.20;11.30;;;7.30;99.90;;;;;;5010168;28;20030;-83
2023/01/27 12:17:50;;;;;;;12.60;11.57;;;7.30;99.90;;;;;;5013804;28;20064;-83
2023/01/27 12:20:38;;;;;;;13.00;11.57;;;7.30;99.90;;;;;;5009922;28;20053;-83
2023/01/27 12:23:12;;;;;;;13.13;12.33;;;7.30;99.90;;;;;;5007741;28;20032;-83
2023/01/27 12:25:46;;;;;;;64.33;60.50;;;7.30;99.90;;;;;;5013445;28;20025;-83
2023/01/27 12:28:23;;;;;;;13.67;12.50;;;7.20;99.90;;;;;;5013976;28;20038;-83
2023/01/27 12:30:50;;;;;;;13.90;12.83;;;7.20;99.90;;;;;;5001907;28;20026;-83
2023/01/27 12:33:25;;;;;;;15.30;13.70;;;7.30;99.90;;;;;;5007623;28;20038;-83
2023/01/27 12:35:52;;;;;;;13.57;12.77;;;7.30;99.90;;;;;;5014914;28;20021;-83
2023/01/27 12:38:22;;;;;;;14.33;13.00;;;7.30;99.90;;;;;;5030444;28;20021;-83
2023/01/27 12:40:57;;;;;;;14.07;13.15;;;7.30;99.90;;;;;;5012195;28;20029;-83
2023/01/27 12:43:23;;;;;;;13.93;12.70;;;7.40;99.90;;;;;;4999224;28;20026;-82
2023/01/27 12:46:11;;;;;;;14.40;13.07;;;7.40;99.90;;;;;;5006746;28;20406;-83
2023/01/27 12:48:45;;;;;;;15.37;12.20;;;7.40;99.90;;;;;;5032435;28;20044;-83
2023/01/27 12:51:19;;;;;;;13.23;11.97;;;7.40;99.90;;;;;;5014270;28;20367;-83
2023/01/27 12:53:47;;;;;;;12.03;11.40;;;7.40;99.90;;;;;;5031358;28;20037;-82
2023/01/27 12:56:21;;;;;;;12.30;11.20;;;7.50;99.90;;;;;;5011946;28;20029;-82
2023/01/27 12:58:53;;;;;;;17.73;16.83;;;7.50;99.90;;;;;;5009230;28;20505;-82
2023/01/27 13:01:19;;;;;;;12.93;11.67;;;7.50;99.90;;;;;;5026665;28;20033;-82
2023/01/27 13:03:48;;;;;;;12.73;11.90;;;7.50;99.90;;;;;;5032097;28;20517;-82
2023/01/27 13:06:15;;;;;;;12.60;11.80;;;7.50;99.90;;;;;;4978960;28;20487;-83
2023/01/27 13:08:42;;;;;;;12.20;11.23;;;7.60;99.90;;;;;;5004484;28;20034;-83
2023/01/27 13:11:08;;;;;;;12.20;11.20;;;7.60;99.90;;;;;;4978489;28;20050;-82
2023/01/27 13:13:34;;;;;;;16.23;12.27;;;7.60;99.90;;;;;;4995903;28;20117;-82
2023/01/27 13:16:12;;;;;;;12.80;11.80;;;7.60;99.90;;;;;;5004134;28;20037;-83
2023/01/27 13:18:39;;;;;;;13.07;12.07;;;7.70;99.90;;;;;;5011085;28;20068;-82
2023/01/27 13:21:15;;;;;;;12.30;11.40;;;7.70;99.90;;;;;;5013819;28;20032;-83
2023/01/27 13:23:41;;;;;;;13.40;12.40;;;7.70;99.90;;;;;;5013593;28;20040;-83
2023/01/27 13:26:07;;;;;;;14.93;12.27;;;7.70;99.90;;;;;;5000916;28;20021;-83